Elko, Canada
Current Conditions -  °F | °C
As of 7:00 AM on Friday 24 Oct 2014 (Local Time) from CYXC Reporting Station
Scattered Clouds Scattered Clouds  
Wind Chill:   Ceiling: Unl
Heat Index:   Visibility: 20mi
Dew Point:   Wind: 2mph
Humidity: 87%   Direction: 230°SW
Pressure: 29.98"   Gusts: NA
Location:  49.3°N, 115.12°W
Report Text: CYXC 241300Z 23002KT 20SM FEW080 SCT250 02/00 A2998 RMK AC1CI2 SLP170
Loading
Personal Weather Stations






























Interactive Weather Map
Tropical Storm Tracking
New forecast layout! Learn more

10-Day Weather Forecast

Advertisements
Track Severe Weather on mobile